Rosaria Lauro — IXXO — position and weather

sailwx.info

Track history (hours):
 
Tides and Currents Weather Stations Pressure Air Temp Water Temp Dewpoint Dewpoint Depression Visibility Wind Speed Wind Dir Waves Ship Positions

Rosaria Lauro

Last reported at 2018-May-27 15:31 UTC. Time now 2018-May-27 15:56 UTC.
Position N 40°47' E 014°12'.

Length 42 m; draft 1.2 m.

Type: Passenger vessel. MMSI: 247055900.

Date/timePositionNaut miles runAvg speedWind from/ knotsBaromVisibWave heightAir tempDewpointWater temp
2018-May-27 15:31N 40°47' E 014°12'1223.6
2018-May-27 15:00N 40°45' E 013°57'4 2.5
2018-May-27 13:31N 40°46' E 013°52'024.4
2018-May-27 13:30N 40°46' E 013°52'1224.3
2018-May-27 13:00N 40°47' E 014°08'612.7
2018-May-27 12:30N 40°50' E 014°15'3 6.6
2018-May-27 12:01N 40°48' E 014°13'1322.9
2018-May-27 11:27N 40°45' E 013°56'2 1.3
2018-May-27 10:02N 40°46' E 013°54'126.2
2018-May-27 09:59N 40°45' E 013°56'4 8.4
2018-May-27 09:30N 40°47' E 014°01'1223.0
2018-May-27 09:00N 40°49' E 014°16'2 3.1
2018-May-27 08:30N 40°50' E 014°15'0 0.1
2018-May-27 07:34N 40°50' E 014°15'0 6.8
2018-May-27 07:30N 40°50' E 014°16'1619.6
2018-May-27 06:41N 40°45' E 013°56'0 0.0
2018-May-26 19:10N 40°45' E 013°56'212.8
2018-May-26 19:00N 40°46' E 013°59'1326.4
2018-May-26 18:31N 40°49' E 014°16'2 3.0
2018-May-26 17:58N 40°50' E 014°16'1512.7
2018-May-26 16:45N 40°45' E 013°57'620.8
2018-May-26 16:29N 40°46' E 014°04'1011.4
2018-May-26 15:38N 40°50' E 014°15'212.5
2018-May-26 15:30N 40°49' E 014°17'1624.6
2018-May-26 14:51N 40°45' E 013°56'4 3.5
2018-May-26 13:49N 40°46' E 013°52'411.0
2018-May-26 13:29N 40°45' E 013°56'1021.4
2018-May-26 13:00N 40°47' E 014°10'510.1
2018-May-26 12:28N 40°50' E 014°15'2 3.9
2018-May-26 12:00N 40°48' E 014°16'13 5.3
2018-May-26 09:38N 40°46' E 013°59'522.5
2018-May-26 09:25N 40°46' E 014°06'8 4.2
2018-May-26 07:29N 40°50' E 014°16'15 1.2
2018-May-25 19:07N 40°45' E 013°58'624.0
2018-May-25 18:52N 40°46' E 014°05'924.1
2018-May-25 18:30N 40°49' E 014°16'1 2.5
2018-May-25 18:00N 40°50' E 014°15'1412.1
2018-May-25 16:49N 40°45' E 013°58'721.9
2018-May-25 16:30N 40°46' E 014°07'714.0
2018-May-25 15:58N 40°50' E 014°15'2 3.5
2018-May-25 15:29N 40°49' E 014°15'9 3.8
2018-May-25 13:09N 40°46' E 014°04'322.9
2018-May-25 13:01N 40°47' E 014°08'713.0
2018-May-25 12:29N 40°50' E 014°15'2 3.2
2018-May-25 12:00N 40°49' E 014°16'12 4.9
2018-May-25 09:35N 40°46' E 014°01'322.6
2018-May-25 09:27N 40°46' E 014°04'8 3.6
2018-May-25 07:19N 40°48' E 014°14'14 0.8
2018-May-24 14:27N 40°45' E 013°57'716.5
2018-May-24 14:00N 40°46' E 014°06'7 1.3
2018-May-24 09:00N 40°50' E 014°13'2 3.6
2018-May-24 08:30N 40°50' E 014°16'16 8.2
2018-May-24 06:32N 40°45' E 013°55'112.9
2018-May-24 06:28N 40°45' E 013°56'818.5
2018-May-24 06:00N 40°47' E 014°07'713.7
2018-May-24 05:29N 40°50' E 014°15'5 9.6
2018-May-24 05:01N 40°47' E 014°11'1122.1
2018-May-24 04:30N 40°45' E 013°56'0 0.0
2018-May-24 03:55N 40°45' E 013°56'0 0.0
2018-May-24 03:28N 40°45' E 013°56'0 0.0
2018-May-23 19:24N 40°45' E 013°56'3 6.7
2018-May-23 19:01N 40°44' E 013°60'1224.2
2018-May-23 18:31N 40°48' E 014°15'2 3.8
2018-May-23 18:00N 40°50' E 014°15'816.8
2018-May-23 17:30N 40°46' E 014°06'711.1
2018-May-23 16:50N 40°45' E 013°56'717.6
2018-May-23 16:25N 40°46' E 014°06'9 3.3
2018-May-23 13:45N 40°51' E 014°16'0 0.0
2018-May-23 13:30N 40°51' E 014°16'0 0.0
2018-May-23 13:00N 40°51' E 014°16'0 0.0
2018-May-23 12:30N 40°51' E 014°16'0 0.0
2018-May-23 12:00N 40°51' E 014°16'0 0.0
2018-May-23 11:30N 40°51' E 014°16'0 0.0
2018-May-23 10:05N 40°51' E 014°16'0 0.0
2018-May-23 09:13N 40°51' E 014°16'0 0.0
2018-May-23 08:35N 40°51' E 014°16'0 0.1
2018-May-23 08:30N 40°51' E 014°16'1 0.9
2018-May-23 07:39N 40°50' E 014°15'1 4.0
2018-May-23 07:30N 40°50' E 014°16'1019.1
2018-May-23 07:00N 40°46' E 014°04'611.4
2018-May-23 06:27N 40°45' E 013°56'0 0.2
2018-May-23 06:00N 40°45' E 013°56'0 0.0
2018-May-22 16:52N 40°45' E 013°56'616.1
2018-May-22 16:30N 40°46' E 014°04'1019.2
2018-May-22 16:00N 40°50' E 014°16'0 0.4
2018-May-22 15:30N 40°50' E 014°15'1 1.2
2018-May-22 15:00N 40°50' E 014°16'0 0.6
2018-May-22 14:30N 40°51' E 014°16'0 0.0
2018-May-22 14:00N 40°51' E 014°16'0 0.0
2018-May-22 13:30N 40°51' E 014°16'0 0.0
2018-May-22 13:00N 40°51' E 014°16'0 0.0
2018-May-22 12:09N 40°51' E 014°16'0 0.0
2018-May-22 11:50N 40°51' E 014°16'0 0.0
2018-May-22 11:30N 40°51' E 014°16'0 0.0
2018-May-22 11:00N 40°51' E 014°16'0 0.0
2018-May-22 10:30N 40°51' E 014°16'0 0.0
2018-May-22 10:00N 40°51' E 014°16'0 0.0
2018-May-22 09:29N 40°51' E 014°16'1 0.7
2018-May-22 08:32N 40°50' E 014°15'010.9
2018-May-22 08:31N 40°50' E 014°16'1618.9
2018-May-22 07:41N 40°45' E 013°56'1 4.7
2018-May-22 07:30N 40°45' E 013°56'3 3.7
2018-May-22 06:41N 40°46' E 013°52'418.3
2018-May-22 06:30N 40°45' E 013°56'918.5
2018-May-22 06:01N 40°47' E 014°08'713.3
2018-May-22 05:30N 40°50' E 014°15'5 9.9
2018-May-22 05:00N 40°47' E 014°11'1121.8
2018-May-22 04:30N 40°45' E 013°56'0 0.0
2018-May-22 03:49N 40°45' E 013°56'0 0.0
2018-May-22 03:30N 40°45' E 013°56'0 0.0
2018-May-21 19:18N 40°45' E 013°56'2 6.2
2018-May-21 19:00N 40°46' E 013°58'1326.1
2018-May-21 18:30N 40°49' E 014°15'2 3.5
2018-May-21 18:01N 40°50' E 014°15'917.7
2018-May-21 17:29N 40°46' E 014°04'611.7
2018-May-21 16:57N 40°45' E 013°56'613.1
2018-May-21 16:30N 40°46' E 014°04'1013.0
2018-May-21 15:45N 40°50' E 014°16'313.9
2018-May-21 15:30N 40°48' E 014°13'1224.2
2018-May-21 15:01N 40°45' E 013°57'4 3.3
2018-May-21 13:46N 40°46' E 013°52'313.5
2018-May-21 13:31N 40°45' E 013°56'918.5
2018-May-21 13:00N 40°47' E 014°08'612.6
2018-May-21 12:30N 40°50' E 014°15'0 0.0
2018-May-21 11:25N 40°50' E 014°15'0 0.0
2018-May-21 11:00N 40°50' E 014°15'3 5.4
2018-May-21 10:30N 40°48' E 014°14'1122.0
2018-May-21 10:00N 40°46' E 013°59'4 7.3
2018-May-21 09:30N 40°46' E 013°55'1 1.8
2018-May-21 08:57N 40°45' E 013°56'510.5
2018-May-21 08:31N 40°46' E 014°02'1222.6
2018-May-21 08:00N 40°50' E 014°16'0 0.2
2018-May-21 07:30N 40°50' E 014°16'1121.2
2018-May-21 07:00N 40°46' E 014°03'510.9
2018-May-21 06:30N 40°45' E 013°56'0 0.0
2018-May-21 06:00N 40°45' E 013°56'0 0.0
2018-May-20 20:37N 40°45' E 013°56'0 0.0
2018-May-20 20:27N 40°45' E 013°56'0 0.0
2018-May-20 20:00N 40°45' E 013°56'0 0.0
2018-May-20 19:30N 40°45' E 013°56'2 3.9
2018-May-20 19:00N 40°46' E 013°59'1225.2
2018-May-20 18:31N 40°48' E 014°15'2 4.1
2018-May-20 18:00N 40°50' E 014°16'918.4
2018-May-20 17:31N 40°46' E 014°05'711.0
2018-May-20 16:55N 40°45' E 013°56'614.5
2018-May-20 16:30N 40°46' E 014°04'1019.5
2018-May-20 16:00N 40°50' E 014°16'4 8.4
2018-May-20 15:30N 40°47' E 014°12'1223.6
2018-May-20 15:00N 40°45' E 013°56'4 2.6
2018-May-20 13:34N 40°45' E 013°52'221.9
2018-May-20 13:30N 40°46' E 013°53'1225.1
2018-May-20 13:01N 40°47' E 014°10'5 8.9
2018-May-20 12:24N 40°50' E 014°15'3 7.9
2018-May-20 12:01N 40°48' E 014°13'1322.4
2018-May-20 11:25N 40°45' E 013°56'4 2.6
2018-May-20 10:02N 40°46' E 013°52'126.3
2018-May-20 09:59N 40°46' E 013°54'714.0
2018-May-20 09:28N 40°46' E 014°03'10 7.8
2018-May-20 08:12N 40°50' E 014°15'0 0.2
2018-May-20 07:32N 40°50' E 014°15'0 1.6
2018-May-20 07:30N 40°50' E 014°16'1619.2
2018-May-20 06:42N 40°45' E 013°56'0 0.1
2018-May-20 06:30N 40°45' E 013°56'0 0.0
2018-May-20 05:59N 40°45' E 013°56'0 0.0
2018-May-20 05:29N 40°45' E 013°56'0 0.0
2018-May-19 19:35N 40°45' E 013°56'0 0.0
2018-May-19 19:29N 40°45' E 013°56'3 5.5
2018-May-19 19:01N 40°46' E 013°59'1224.5
2018-May-19 18:30N 40°49' E 014°15'2 3.4
2018-May-19 18:00N 40°50' E 014°16'1512.1
2018-May-19 16:45N 40°45' E 013°57'620.5
2018-May-19 16:27N 40°46' E 014°05'914.2
2018-May-19 15:49N 40°50' E 014°15'2 5.6
2018-May-19 15:30N 40°49' E 014°15'1520.1
2018-May-19 14:47N 40°45' E 013°56'4 4.1
2018-May-19 13:54N 40°46' E 013°52'4 8.8
2018-May-19 13:30N 40°45' E 013°57'1121.7
2018-May-19 13:00N 40°47' E 014°10'5 9.8
2018-May-19 12:30N 40°50' E 014°15'2 4.7
2018-May-19 11:59N 40°48' E 014°14'1424.4
2018-May-19 11:26N 40°45' E 013°57'4 2.9
2018-May-19 10:11N 40°46' E 013°52'316.8
2018-May-19 09:59N 40°45' E 013°56'612.6
2018-May-19 09:30N 40°46' E 014°04'9 4.8
2018-May-19 07:33N 40°50' E 014°15'0 5.2
2018-May-19 07:29N 40°50' E 014°16'16 1.3
2018-May-18 19:25N 40°45' E 013°56'4 9.2
2018-May-18 18:59N 40°46' E 014°01'1123.3
2018-May-18 18:30N 40°49' E 014°15'1 2.4
2018-May-18 17:57N 40°50' E 014°16'1512.8
2018-May-18 16:45N 40°45' E 013°57'623.2
2018-May-18 16:29N 40°46' E 014°05'9 9.0
2018-May-18 15:29N 40°50' E 014°16'15 7.7
2018-May-18 13:30N 40°45' E 013°57'1020.4
2018-May-18 13:00N 40°47' E 014°10'6 5.6
2018-May-18 11:59N 40°50' E 014°16'2 4.1
2018-May-18 11:30N 40°50' E 014°13'0 0.0
2018-May-18 11:00N 40°50' E 014°13'0 0.0
2018-May-18 10:30N 40°50' E 014°13'0 0.0
2018-May-18 10:00N 40°50' E 014°13'1 1.0
2018-May-18 09:29N 40°49' E 014°14'0 0.9
2018-May-18 09:00N 40°50' E 014°14'0 0.2
2018-May-18 08:30N 40°50' E 014°13'0 0.0
2018-May-18 08:00N 40°50' E 014°13'2 3.8
2018-May-18 07:30N 40°50' E 014°16'16 1.1
2018-May-17 16:39N 40°45' E 013°56'1 3.0
2018-May-17 16:24N 40°45' E 013°57'922.2
2018-May-17 16:00N 40°47' E 014°08'  
Track history (hours):
 
Tides and Currents Weather Stations Pressure Air Temp Water Temp Dewpoint Dewpoint Depression Visibility Wind Speed Wind Dir Waves Ship Positions

Rosaria Lauro

Last reported at 2018-May-27 15:31 UTC. Time now 2018-May-27 15:56 UTC.
Position N 40°47' E 014°12'.

Length 42 m; draft 1.2 m.

Type: Passenger vessel. MMSI: 247055900.

Date/timePositionNaut miles runAvg speedWind from/ knotsBaromVisibWave heightAir tempDewpointWater temp
2018-May-27 15:31N 40°47' E 014°12'1223.6
2018-May-27 15:00N 40°45' E 013°57'4 2.5
2018-May-27 13:31N 40°46' E 013°52'024.4
2018-May-27 13:30N 40°46' E 013°52'1224.3
2018-May-27 13:00N 40°47' E 014°08'612.7
2018-May-27 12:30N 40°50' E 014°15'3 6.6
2018-May-27 12:01N 40°48' E 014°13'1322.9
2018-May-27 11:27N 40°45' E 013°56'2 1.3
2018-May-27 10:02N 40°46' E 013°54'126.2
2018-May-27 09:59N 40°45' E 013°56'4 8.4
2018-May-27 09:30N 40°47' E 014°01'1223.0
2018-May-27 09:00N 40°49' E 014°16'2 3.1
2018-May-27 08:30N 40°50' E 014°15'0 0.1
2018-May-27 07:34N 40°50' E 014°15'0 6.8
2018-May-27 07:30N 40°50' E 014°16'1619.6
2018-May-27 06:41N 40°45' E 013°56'0 0.0
2018-May-26 19:10N 40°45' E 013°56'212.8
2018-May-26 19:00N 40°46' E 013°59'1326.4
2018-May-26 18:31N 40°49' E 014°16'2 3.0
2018-May-26 17:58N 40°50' E 014°16'1512.7
2018-May-26 16:45N 40°45' E 013°57'620.8
2018-May-26 16:29N 40°46' E 014°04'1011.4
2018-May-26 15:38N 40°50' E 014°15'212.5
2018-May-26 15:30N 40°49' E 014°17'1624.6
2018-May-26 14:51N 40°45' E 013°56'4 3.5
2018-May-26 13:49N 40°46' E 013°52'411.0
2018-May-26 13:29N 40°45' E 013°56'1021.4
2018-May-26 13:00N 40°47' E 014°10'510.1
2018-May-26 12:28N 40°50' E 014°15'2 3.9
2018-May-26 12:00N 40°48' E 014°16'13 5.3
2018-May-26 09:38N 40°46' E 013°59'522.5
2018-May-26 09:25N 40°46' E 014°06'8 4.2
2018-May-26 07:29N 40°50' E 014°16'15 1.2
2018-May-25 19:07N 40°45' E 013°58'624.0
2018-May-25 18:52N 40°46' E 014°05'924.1
2018-May-25 18:30N 40°49' E 014°16'1 2.5
2018-May-25 18:00N 40°50' E 014°15'1412.1
2018-May-25 16:49N 40°45' E 013°58'721.9
2018-May-25 16:30N 40°46' E 014°07'714.0
2018-May-25 15:58N 40°50' E 014°15'2 3.5
2018-May-25 15:29N 40°49' E 014°15'9 3.8
2018-May-25 13:09N 40°46' E 014°04'322.9
2018-May-25 13:01N 40°47' E 014°08'713.0
2018-May-25 12:29N 40°50' E 014°15'2 3.2
2018-May-25 12:00N 40°49' E 014°16'12 4.9
2018-May-25 09:35N 40°46' E 014°01'322.6
2018-May-25 09:27N 40°46' E 014°04'8 3.6
2018-May-25 07:19N 40°48' E 014°14'14 0.8
2018-May-24 14:27N 40°45' E 013°57'716.5
2018-May-24 14:00N 40°46' E 014°06'7 1.3
2018-May-24 09:00N 40°50' E 014°13'2 3.6
2018-May-24 08:30N 40°50' E 014°16'16 8.2
2018-May-24 06:32N 40°45' E 013°55'112.9
2018-May-24 06:28N 40°45' E 013°56'818.5
2018-May-24 06:00N 40°47' E 014°07'713.7
2018-May-24 05:29N 40°50' E 014°15'5 9.6
2018-May-24 05:01N 40°47' E 014°11'1122.1
2018-May-24 04:30N 40°45' E 013°56'0 0.0
2018-May-24 03:55N 40°45' E 013°56'0 0.0
2018-May-24 03:28N 40°45' E 013°56'0 0.0
2018-May-23 19:24N 40°45' E 013°56'3 6.7
2018-May-23 19:01N 40°44' E 013°60'1224.2
2018-May-23 18:31N 40°48' E 014°15'2 3.8
2018-May-23 18:00N 40°50' E 014°15'816.8
2018-May-23 17:30N 40°46' E 014°06'711.1
2018-May-23 16:50N 40°45' E 013°56'717.6
2018-May-23 16:25N 40°46' E 014°06'9 3.3
2018-May-23 13:45N 40°51' E 014°16'0 0.0
2018-May-23 13:30N 40°51' E 014°16'0 0.0
2018-May-23 13:00N 40°51' E 014°16'0 0.0
2018-May-23 12:30N 40°51' E 014°16'0 0.0
2018-May-23 12:00N 40°51' E 014°16'0 0.0
2018-May-23 11:30N 40°51' E 014°16'0 0.0
2018-May-23 10:05N 40°51' E 014°16'0 0.0
2018-May-23 09:13N 40°51' E 014°16'0 0.0
2018-May-23 08:35N 40°51' E 014°16'0 0.1
2018-May-23 08:30N 40°51' E 014°16'1 0.9
2018-May-23 07:39N 40°50' E 014°15'1 4.0
2018-May-23 07:30N 40°50' E 014°16'1019.1
2018-May-23 07:00N 40°46' E 014°04'611.4
2018-May-23 06:27N 40°45' E 013°56'0 0.2
2018-May-23 06:00N 40°45' E 013°56'0 0.0
2018-May-22 16:52N 40°45' E 013°56'616.1
2018-May-22 16:30N 40°46' E 014°04'1019.2
2018-May-22 16:00N 40°50' E 014°16'0 0.4
2018-May-22 15:30N 40°50' E 014°15'1 1.2
2018-May-22 15:00N 40°50' E 014°16'0 0.6
2018-May-22 14:30N 40°51' E 014°16'0 0.0
2018-May-22 14:00N 40°51' E 014°16'0 0.0
2018-May-22 13:30N 40°51' E 014°16'0 0.0
2018-May-22 13:00N 40°51' E 014°16'0 0.0
2018-May-22 12:09N 40°51' E 014°16'0 0.0
2018-May-22 11:50N 40°51' E 014°16'0 0.0
2018-May-22 11:30N 40°51' E 014°16'0 0.0
2018-May-22 11:00N 40°51' E 014°16'0 0.0
2018-May-22 10:30N 40°51' E 014°16'0 0.0
2018-May-22 10:00N 40°51' E 014°16'0 0.0
2018-May-22 09:29N 40°51' E 014°16'1 0.7
2018-May-22 08:32N 40°50' E 014°15'010.9
2018-May-22 08:31N 40°50' E 014°16'1618.9
2018-May-22 07:41N 40°45' E 013°56'1 4.7
2018-May-22 07:30N 40°45' E 013°56'3 3.7
2018-May-22 06:41N 40°46' E 013°52'418.3
2018-May-22 06:30N 40°45' E 013°56'918.5
2018-May-22 06:01N 40°47' E 014°08'713.3
2018-May-22 05:30N 40°50' E 014°15'5 9.9
2018-May-22 05:00N 40°47' E 014°11'1121.8
2018-May-22 04:30N 40°45' E 013°56'0 0.0
2018-May-22 03:49N 40°45' E 013°56'0 0.0
2018-May-22 03:30N 40°45' E 013°56'0 0.0
2018-May-21 19:18N 40°45' E 013°56'2 6.2
2018-May-21 19:00N 40°46' E 013°58'1326.1
2018-May-21 18:30N 40°49' E 014°15'2 3.5
2018-May-21 18:01N 40°50' E 014°15'917.7
2018-May-21 17:29N 40°46' E 014°04'611.7
2018-May-21 16:57N 40°45' E 013°56'613.1
2018-May-21 16:30N 40°46' E 014°04'1013.0
2018-May-21 15:45N 40°50' E 014°16'313.9
2018-May-21 15:30N 40°48' E 014°13'1224.2
2018-May-21 15:01N 40°45' E 013°57'4 3.3
2018-May-21 13:46N 40°46' E 013°52'313.5
2018-May-21 13:31N 40°45' E 013°56'918.5
2018-May-21 13:00N 40°47' E 014°08'612.6
2018-May-21 12:30N 40°50' E 014°15'0 0.0
2018-May-21 11:25N 40°50' E 014°15'0 0.0
2018-May-21 11:00N 40°50' E 014°15'3 5.4
2018-May-21 10:30N 40°48' E 014°14'1122.0
2018-May-21 10:00N 40°46' E 013°59'4 7.3
2018-May-21 09:30N 40°46' E 013°55'1 1.8
2018-May-21 08:57N 40°45' E 013°56'510.5
2018-May-21 08:31N 40°46' E 014°02'1222.6
2018-May-21 08:00N 40°50' E 014°16'0 0.2
2018-May-21 07:30N 40°50' E 014°16'1121.2
2018-May-21 07:00N 40°46' E 014°03'510.9
2018-May-21 06:30N 40°45' E 013°56'0 0.0
2018-May-21 06:00N 40°45' E 013°56'0 0.0
2018-May-20 20:37N 40°45' E 013°56'0 0.0
2018-May-20 20:27N 40°45' E 013°56'0 0.0
2018-May-20 20:00N 40°45' E 013°56'0 0.0
2018-May-20 19:30N 40°45' E 013°56'2 3.9
2018-May-20 19:00N 40°46' E 013°59'1225.2
2018-May-20 18:31N 40°48' E 014°15'2 4.1
2018-May-20 18:00N 40°50' E 014°16'918.4
2018-May-20 17:31N 40°46' E 014°05'711.0
2018-May-20 16:55N 40°45' E 013°56'614.5
2018-May-20 16:30N 40°46' E 014°04'1019.5
2018-May-20 16:00N 40°50' E 014°16'4 8.4
2018-May-20 15:30N 40°47' E 014°12'1223.6
2018-May-20 15:00N 40°45' E 013°56'4 2.6
2018-May-20 13:34N 40°45' E 013°52'221.9
2018-May-20 13:30N 40°46' E 013°53'1225.1
2018-May-20 13:01N 40°47' E 014°10'5 8.9
2018-May-20 12:24N 40°50' E 014°15'3 7.9
2018-May-20 12:01N 40°48' E 014°13'1322.4
2018-May-20 11:25N 40°45' E 013°56'4 2.6
2018-May-20 10:02N 40°46' E 013°52'126.3
2018-May-20 09:59N 40°46' E 013°54'714.0
2018-May-20 09:28N 40°46' E 014°03'10 7.8
2018-May-20 08:12N 40°50' E 014°15'0 0.2
2018-May-20 07:32N 40°50' E 014°15'0 1.6
2018-May-20 07:30N 40°50' E 014°16'1619.2
2018-May-20 06:42N 40°45' E 013°56'0 0.1
2018-May-20 06:30N 40°45' E 013°56'0 0.0
2018-May-20 05:59N 40°45' E 013°56'0 0.0
2018-May-20 05:29N 40°45' E 013°56'0 0.0
2018-May-19 19:35N 40°45' E 013°56'0 0.0
2018-May-19 19:29N 40°45' E 013°56'3 5.5
2018-May-19 19:01N 40°46' E 013°59'1224.5
2018-May-19 18:30N 40°49' E 014°15'2 3.4
2018-May-19 18:00N 40°50' E 014°16'1512.1
2018-May-19 16:45N 40°45' E 013°57'620.5
2018-May-19 16:27N 40°46' E 014°05'914.2
2018-May-19 15:49N 40°50' E 014°15'2 5.6
2018-May-19 15:30N 40°49' E 014°15'1520.1
2018-May-19 14:47N 40°45' E 013°56'4 4.1
2018-May-19 13:54N 40°46' E 013°52'4 8.8
2018-May-19 13:30N 40°45' E 013°57'1121.7
2018-May-19 13:00N 40°47' E 014°10'5 9.8
2018-May-19 12:30N 40°50' E 014°15'2 4.7
2018-May-19 11:59N 40°48' E 014°14'1424.4
2018-May-19 11:26N 40°45' E 013°57'4 2.9
2018-May-19 10:11N 40°46' E 013°52'316.8
2018-May-19 09:59N 40°45' E 013°56'612.6
2018-May-19 09:30N 40°46' E 014°04'9 4.8
2018-May-19 07:33N 40°50' E 014°15'0 5.2
2018-May-19 07:29N 40°50' E 014°16'16 1.3
2018-May-18 19:25N 40°45' E 013°56'4 9.2
2018-May-18 18:59N 40°46' E 014°01'1123.3
2018-May-18 18:30N 40°49' E 014°15'1 2.4
2018-May-18 17:57N 40°50' E 014°16'1512.8
2018-May-18 16:45N 40°45' E 013°57'623.2
2018-May-18 16:29N 40°46' E 014°05'9 9.0
2018-May-18 15:29N 40°50' E 014°16'15 7.7
2018-May-18 13:30N 40°45' E 013°57'1020.4
2018-May-18 13:00N 40°47' E 014°10'6 5.6
2018-May-18 11:59N 40°50' E 014°16'2 4.1
2018-May-18 11:30N 40°50' E 014°13'0 0.0
2018-May-18 11:00N 40°50' E 014°13'0 0.0
2018-May-18 10:30N 40°50' E 014°13'0 0.0
2018-May-18 10:00N 40°50' E 014°13'1 1.0
2018-May-18 09:29N 40°49' E 014°14'0 0.9
2018-May-18 09:00N 40°50' E 014°14'0 0.2
2018-May-18 08:30N 40°50' E 014°13'0 0.0
2018-May-18 08:00N 40°50' E 014°13'2 3.8
2018-May-18 07:30N 40°50' E 014°16'16 1.1
2018-May-17 16:39N 40°45' E 013°56'1 3.0
2018-May-17 16:24N 40°45' E 013°57'922.2
2018-May-17 16:00N 40°47' E 014°08'  

Dump ship's entire track history